sensor_id;sensor_type;location;lat;lon;timestamp;P1;durP1;ratioP1;P2;durP2;ratioP2
63217;SDS011;49314;48.278;16.378;2023-07-31T00:00:42;4.65;;;4.35;;
63217;SDS011;49314;48.278;16.378;2023-07-31T00:03:07;4.82;;;4.47;;
63217;SDS011;49314;48.278;16.378;2023-07-31T00:05:32;5.40;;;5.10;;
63217;SDS011;49314;48.278;16.378;2023-07-31T00:07:58;5.70;;;5.30;;
63217;SDS011;49314;48.278;16.378;2023-07-31T00:10:23;4.40;;;4.10;;
63217;SDS011;49314;48.278;16.378;2023-07-31T00:12:48;4.82;;;4.53;;
63217;SDS011;49314;48.278;16.378;2023-07-31T00:15:14;5.40;;;4.13;;
63217;SDS011;49314;48.278;16.378;2023-07-31T00:17:39;5.57;;;5.18;;
63217;SDS011;49314;48.278;16.378;2023-07-31T00:20:04;4.82;;;4.35;;
63217;SDS011;49314;48.278;16.378;2023-07-31T00:22:30;5.00;;;4.60;;
63217;SDS011;49314;48.278;16.378;2023-07-31T00:24:56;5.57;;;5.23;;
63217;SDS011;49314;48.278;16.378;2023-07-31T00:27:21;4.72;;;4.53;;
63217;SDS011;49314;48.278;16.378;2023-07-31T00:29:46;4.70;;;4.50;;
63217;SDS011;49314;48.278;16.378;2023-07-31T00:32:12;4.93;;;4.63;;
63217;SDS011;49314;48.278;16.378;2023-07-31T00:34:37;4.17;;;3.83;;
63217;SDS011;49314;48.278;16.378;2023-07-31T00:37:02;4.57;;;4.35;;
63217;SDS011;49314;48.278;16.378;2023-07-31T00:39:29;5.32;;;5.10;;
63217;SDS011;49314;48.278;16.378;2023-07-31T00:41:54;4.57;;;4.28;;
63217;SDS011;49314;48.278;16.378;2023-07-31T00:44:20;5.83;;;5.53;;
63217;SDS011;49314;48.278;16.378;2023-07-31T00:46:45;4.87;;;4.60;;
63217;SDS011;49314;48.278;16.378;2023-07-31T00:49:10;3.97;;;3.77;;
63217;SDS011;49314;48.278;16.378;2023-07-31T00:51:36;5.57;;;5.35;;
63217;SDS011;49314;48.278;16.378;2023-07-31T00:54:01;3.53;;;3.25;;
63217;SDS011;49314;48.278;16.378;2023-07-31T00:56:27;4.85;;;4.43;;
63217;SDS011;49314;48.278;16.378;2023-07-31T00:58:52;4.15;;;3.80;;
63217;SDS011;49314;48.278;16.378;2023-07-31T01:01:18;5.40;;;5.10;;
63217;SDS011;49314;48.278;16.378;2023-07-31T01:03:43;5.20;;;4.90;;
63217;SDS011;49314;48.278;16.378;2023-07-31T01:06:17;3.85;;;3.55;;
63217;SDS011;49314;48.278;16.378;2023-07-31T01:09:07;5.80;;;5.50;;
63217;SDS011;49314;48.278;16.378;2023-07-31T01:11:38;5.88;;;5.47;;
63217;SDS011;49314;48.278;16.378;2023-07-31T01:14:07;4.40;;;4.00;;
63217;SDS011;49314;48.278;16.378;2023-07-31T01:16:33;4.57;;;4.38;;
63217;SDS011;49314;48.278;16.378;2023-07-31T01:18:58;4.13;;;3.93;;
63217;SDS011;49314;48.278;16.378;2023-07-31T01:26:59;5.18;;;4.20;;
63217;SDS011;49314;48.278;16.378;2023-07-31T01:29:43;4.38;;;4.07;;
63217;SDS011;49314;48.278;16.378;2023-07-31T01:32:12;5.63;;;5.22;;
63217;SDS011;49314;48.278;16.378;2023-07-31T01:34:37;5.28;;;5.00;;
63217;SDS011;49314;48.278;16.378;2023-07-31T01:37:03;4.15;;;3.85;;
63217;SDS011;49314;48.278;16.378;2023-07-31T01:39:28;5.47;;;5.22;;
63217;SDS011;49314;48.278;16.378;2023-07-31T01:41:53;5.07;;;4.67;;
63217;SDS011;49314;48.278;16.378;2023-07-31T01:44:18;5.38;;;5.07;;
63217;SDS011;49314;48.278;16.378;2023-07-31T01:46:44;5.40;;;4.90;;
63217;SDS011;49314;48.278;16.378;2023-07-31T01:49:09;5.30;;;4.90;;
63217;SDS011;49314;48.278;16.378;2023-07-31T01:51:34;4.38;;;3.97;;
63217;SDS011;49314;48.278;16.378;2023-07-31T01:54:00;5.40;;;5.10;;
63217;SDS011;49314;48.278;16.378;2023-07-31T01:56:26;4.55;;;4.25;;
63217;SDS011;49314;48.278;16.378;2023-07-31T01:58:51;5.13;;;4.82;;
63217;SDS011;49314;48.278;16.378;2023-07-31T02:01:16;3.85;;;3.55;;
63217;SDS011;49314;48.278;16.378;2023-07-31T02:03:41;6.43;;;6.03;;
63217;SDS011;49314;48.278;16.378;2023-07-31T02:06:07;4.63;;;4.32;;
63217;SDS011;49314;48.278;16.378;2023-07-31T02:08:32;5.18;;;4.55;;
63217;SDS011;49314;48.278;16.378;2023-07-31T02:10:57;6.03;;;4.97;;
63217;SDS011;49314;48.278;16.378;2023-07-31T02:13:23;3.63;;;3.53;;
63217;SDS011;49314;48.278;16.378;2023-07-31T02:15:48;5.50;;;5.10;;
63217;SDS011;49314;48.278;16.378;2023-07-31T02:18:13;4.00;;;3.80;;
63217;SDS011;49314;48.278;16.378;2023-07-31T02:20:38;5.10;;;4.80;;
63217;SDS011;49314;48.278;16.378;2023-07-31T02:23:03;5.97;;;5.40;;
63217;SDS011;49314;48.278;16.378;2023-07-31T02:25:29;5.13;;;4.53;;
63217;SDS011;49314;48.278;16.378;2023-07-31T02:27:54;5.47;;;5.17;;
63217;SDS011;49314;48.278;16.378;2023-07-31T02:30:19;6.13;;;5.63;;
63217;SDS011;49314;48.278;16.378;2023-07-31T02:32:45;4.85;;;4.55;;
63217;SDS011;49314;48.278;16.378;2023-07-31T02:35:10;5.43;;;5.03;;
63217;SDS011;49314;48.278;16.378;2023-07-31T02:37:36;3.42;;;3.25;;
63217;SDS011;49314;48.278;16.378;2023-07-31T02:40:01;6.00;;;5.70;;
63217;SDS011;49314;48.278;16.378;2023-07-31T02:42:27;3.63;;;3.42;;
63217;SDS011;49314;48.278;16.378;2023-07-31T02:44:52;5.43;;;5.13;;
63217;SDS011;49314;48.278;16.378;2023-07-31T02:47:21;5.32;;;5.10;;
63217;SDS011;49314;48.278;16.378;2023-07-31T02:49:46;8.13;;;5.85;;
63217;SDS011;49314;48.278;16.378;2023-07-31T02:52:11;5.60;;;5.33;;
63217;SDS011;49314;48.278;16.378;2023-07-31T02:54:36;5.55;;;5.15;;
63217;SDS011;49314;48.278;16.378;2023-07-31T02:57:01;4.67;;;4.43;;
63217;SDS011;49314;48.278;16.378;2023-07-31T02:59:27;5.68;;;5.28;;
63217;SDS011;49314;48.278;16.378;2023-07-31T03:01:53;5.65;;;5.25;;
63217;SDS011;49314;48.278;16.378;2023-07-31T03:04:18;4.57;;;4.27;;
63217;SDS011;49314;48.278;16.378;2023-07-31T03:06:43;5.37;;;5.07;;
63217;SDS011;49314;48.278;16.378;2023-07-31T03:09:08;5.77;;;5.47;;
63217;SDS011;49314;48.278;16.378;2023-07-31T03:11:33;6.32;;;5.90;;
63217;SDS011;49314;48.278;16.378;2023-07-31T03:13:59;5.60;;;5.30;;
63217;SDS011;49314;48.278;16.378;2023-07-31T03:16:24;5.67;;;4.73;;
63217;SDS011;49314;48.278;16.378;2023-07-31T03:18:49;5.83;;;5.53;;
63217;SDS011;49314;48.278;16.378;2023-07-31T03:21:14;4.87;;;4.47;;
63217;SDS011;49314;48.278;16.378;2023-07-31T03:23:39;5.80;;;5.40;;
63217;SDS011;49314;48.278;16.378;2023-07-31T03:26:06;4.30;;;3.83;;
63217;SDS011;49314;48.278;16.378;2023-07-31T03:28:32;5.35;;;4.97;;
63217;SDS011;49314;48.278;16.378;2023-07-31T03:30:57;5.10;;;4.80;;
63217;SDS011;49314;48.278;16.378;2023-07-31T03:33:22;5.97;;;5.57;;
63217;SDS011;49314;48.278;16.378;2023-07-31T03:35:47;5.30;;;4.90;;
63217;SDS011;49314;48.278;16.378;2023-07-31T03:38:13;4.80;;;4.57;;
63217;SDS011;49314;48.278;16.378;2023-07-31T03:40:38;5.80;;;5.53;;
63217;SDS011;49314;48.278;16.378;2023-07-31T03:43:03;6.03;;;5.63;;
63217;SDS011;49314;48.278;16.378;2023-07-31T03:45:28;4.73;;;4.40;;
63217;SDS011;49314;48.278;16.378;2023-07-31T03:47:54;4.43;;;4.15;;
63217;SDS011;49314;48.278;16.378;2023-07-31T03:50:20;5.75;;;5.13;;
63217;SDS011;49314;48.278;16.378;2023-07-31T03:52:45;5.60;;;5.13;;
63217;SDS011;49314;48.278;16.378;2023-07-31T03:55:10;4.82;;;4.53;;
63217;SDS011;49314;48.278;16.378;2023-07-31T03:57:35;6.07;;;5.73;;
63217;SDS011;49314;48.278;16.378;2023-07-31T04:00:01;5.05;;;4.63;;
63217;SDS011;49314;48.278;16.378;2023-07-31T04:02:26;5.83;;;5.53;;
63217;SDS011;49314;48.278;16.378;2023-07-31T04:04:51;4.87;;;4.37;;
63217;SDS011;49314;48.278;16.378;2023-07-31T04:07:16;6.33;;;6.03;;
63217;SDS011;49314;48.278;16.378;2023-07-31T04:09:42;4.87;;;4.50;;
63217;SDS011;49314;48.278;16.378;2023-07-31T04:12:07;4.93;;;4.53;;
63217;SDS011;49314;48.278;16.378;2023-07-31T04:14:32;3.50;;;3.30;;
63217;SDS011;49314;48.278;16.378;2023-07-31T04:16:57;7.73;;;4.87;;
63217;SDS011;49314;48.278;16.378;2023-07-31T04:19:23;3.93;;;3.73;;
63217;SDS011;49314;48.278;16.378;2023-07-31T04:21:48;5.17;;;4.77;;
63217;SDS011;49314;48.278;16.378;2023-07-31T04:24:13;4.57;;;4.27;;
63217;SDS011;49314;48.278;16.378;2023-07-31T04:26:38;4.20;;;3.90;;
63217;SDS011;49314;48.278;16.378;2023-07-31T04:29:04;4.33;;;4.03;;
63217;SDS011;49314;48.278;16.378;2023-07-31T04:31:29;4.90;;;4.30;;
63217;SDS011;49314;48.278;16.378;2023-07-31T04:33:54;5.07;;;4.77;;
63217;SDS011;49314;48.278;16.378;2023-07-31T04:36:19;4.70;;;4.40;;
63217;SDS011;49314;48.278;16.378;2023-07-31T04:38:45;3.95;;;3.65;;
63217;SDS011;49314;48.278;16.378;2023-07-31T04:41:10;5.60;;;4.67;;
63217;SDS011;49314;48.278;16.378;2023-07-31T04:43:35;3.97;;;3.72;;
63217;SDS011;49314;48.278;16.378;2023-07-31T04:46:03;4.57;;;4.28;;
63217;SDS011;49314;48.278;16.378;2023-07-31T04:48:29;5.67;;;5.23;;
63217;SDS011;49314;48.278;16.378;2023-07-31T04:50:54;4.40;;;4.18;;
63217;SDS011;49314;48.278;16.378;2023-07-31T04:53:19;4.45;;;4.05;;
63217;SDS011;49314;48.278;16.378;2023-07-31T04:55:44;4.80;;;4.50;;
63217;SDS011;49314;48.278;16.378;2023-07-31T04:58:10;5.40;;;4.77;;
63217;SDS011;49314;48.278;16.378;2023-07-31T05:00:35;5.03;;;4.67;;
63217;SDS011;49314;48.278;16.378;2023-07-31T05:03:00;5.97;;;4.83;;
63217;SDS011;49314;48.278;16.378;2023-07-31T05:05:25;3.72;;;3.50;;
63217;SDS011;49314;48.278;16.378;2023-07-31T05:07:53;3.97;;;3.60;;
63217;SDS011;49314;48.278;16.378;2023-07-31T05:10:19;4.07;;;3.78;;
63217;SDS011;49314;48.278;16.378;2023-07-31T05:12:44;4.30;;;3.72;;
63217;SDS011;49314;48.278;16.378;2023-07-31T05:15:09;5.65;;;4.07;;
63217;SDS011;49314;48.278;16.378;2023-07-31T05:17:35;4.43;;;4.03;;
63217;SDS011;49314;48.278;16.378;2023-07-31T05:20:00;3.83;;;3.53;;
63217;SDS011;49314;48.278;16.378;2023-07-31T05:22:25;4.70;;;4.30;;
63217;SDS011;49314;48.278;16.378;2023-07-31T05:24:50;4.53;;;4.13;;
63217;SDS011;49314;48.278;16.378;2023-07-31T05:27:16;3.30;;;2.87;;
63217;SDS011;49314;48.278;16.378;2023-07-31T05:29:43;5.47;;;4.07;;
63217;SDS011;49314;48.278;16.378;2023-07-31T05:32:08;4.53;;;3.50;;
63217;SDS011;49314;48.278;16.378;2023-07-31T05:34:34;4.60;;;3.95;;
63217;SDS011;49314;48.278;16.378;2023-07-31T05:36:59;3.27;;;3.00;;
63217;SDS011;49314;48.278;16.378;2023-07-31T05:39:24;4.00;;;3.47;;
63217;SDS011;49314;48.278;16.378;2023-07-31T05:41:49;3.53;;;3.33;;
63217;SDS011;49314;48.278;16.378;2023-07-31T05:44:17;3.42;;;3.22;;
63217;SDS011;49314;48.278;16.378;2023-07-31T05:46:42;3.72;;;3.30;;
63217;SDS011;49314;48.278;16.378;2023-07-31T05:49:08;3.63;;;3.30;;
63217;SDS011;49314;48.278;16.378;2023-07-31T05:51:33;3.05;;;2.85;;
63217;SDS011;49314;48.278;16.378;2023-07-31T05:53:58;3.40;;;2.30;;
63217;SDS011;49314;48.278;16.378;2023-07-31T05:56:23;4.17;;;2.47;;
63217;SDS011;49314;48.278;16.378;2023-07-31T05:58:49;2.40;;;2.17;;
63217;SDS011;49314;48.278;16.378;2023-07-31T06:01:15;3.05;;;2.13;;
63217;SDS011;49314;48.278;16.378;2023-07-31T06:03:41;4.22;;;2.15;;
63217;SDS011;49314;48.278;16.378;2023-07-31T06:06:06;4.17;;;2.30;;
63217;SDS011;49314;48.278;16.378;2023-07-31T06:08:31;2.83;;;1.60;;
63217;SDS011;49314;48.278;16.378;2023-07-31T06:10:56;3.07;;;1.83;;
63217;SDS011;49314;48.278;16.378;2023-07-31T06:13:22;2.90;;;1.87;;
63217;SDS011;49314;48.278;16.378;2023-07-31T06:15:47;2.13;;;1.80;;
63217;SDS011;49314;48.278;16.378;2023-07-31T06:18:12;3.77;;;2.17;;
63217;SDS011;49314;48.278;16.378;2023-07-31T06:20:37;4.47;;;2.28;;
63217;SDS011;49314;48.278;16.378;2023-07-31T06:23:05;3.72;;;2.10;;
63217;SDS011;49314;48.278;16.378;2023-07-31T06:25:30;2.97;;;2.30;;
63217;SDS011;49314;48.278;16.378;2023-07-31T06:27:56;3.07;;;2.27;;
63217;SDS011;49314;48.278;16.378;2023-07-31T06:30:21;4.37;;;3.10;;
63217;SDS011;49314;48.278;16.378;2023-07-31T06:32:46;4.68;;;1.67;;
63217;SDS011;49314;48.278;16.378;2023-07-31T06:35:11;2.53;;;2.10;;
63217;SDS011;49314;48.278;16.378;2023-07-31T06:37:37;5.53;;;2.40;;
63217;SDS011;49314;48.278;16.378;2023-07-31T06:40:05;3.75;;;2.38;;
63217;SDS011;49314;48.278;16.378;2023-07-31T06:42:32;4.45;;;2.78;;
63217;SDS011;49314;48.278;16.378;2023-07-31T06:44:57;3.67;;;2.47;;
63217;SDS011;49314;48.278;16.378;2023-07-31T06:47:22;3.97;;;2.50;;
63217;SDS011;49314;48.278;16.378;2023-07-31T06:49:47;2.57;;;2.37;;
63217;SDS011;49314;48.278;16.378;2023-07-31T06:52:13;3.27;;;2.10;;
63217;SDS011;49314;48.278;16.378;2023-07-31T06:54:38;2.60;;;1.83;;
63217;SDS011;49314;48.278;16.378;2023-07-31T06:57:03;3.20;;;2.13;;
63217;SDS011;49314;48.278;16.378;2023-07-31T06:59:29;2.10;;;1.90;;
63217;SDS011;49314;48.278;16.378;2023-07-31T07:01:54;3.77;;;1.97;;
63217;SDS011;49314;48.278;16.378;2023-07-31T07:04:19;2.97;;;2.27;;
63217;SDS011;49314;48.278;16.378;2023-07-31T07:06:44;2.20;;;1.70;;
63217;SDS011;49314;48.278;16.378;2023-07-31T07:09:09;3.27;;;1.70;;
63217;SDS011;49314;48.278;16.378;2023-07-31T07:11:35;3.27;;;2.20;;
63217;SDS011;49314;48.278;16.378;2023-07-31T07:14:02;4.30;;;2.22;;
63217;SDS011;49314;48.278;16.378;2023-07-31T07:16:28;3.70;;;1.90;;
63217;SDS011;49314;48.278;16.378;2023-07-31T07:18:53;3.83;;;1.92;;
63217;SDS011;49314;48.278;16.378;2023-07-31T07:21:18;2.60;;;1.77;;
63217;SDS011;49314;48.278;16.378;2023-07-31T07:23:43;3.93;;;1.90;;
63217;SDS011;49314;48.278;16.378;2023-07-31T07:26:09;2.40;;;1.83;;
63217;SDS011;49314;48.278;16.378;2023-07-31T07:28:34;2.38;;;1.70;;
63217;SDS011;49314;48.278;16.378;2023-07-31T07:30:59;4.20;;;2.08;;
63217;SDS011;49314;48.278;16.378;2023-07-31T07:33:25;2.60;;;1.50;;
63217;SDS011;49314;48.278;16.378;2023-07-31T07:35:50;3.93;;;1.90;;
63217;SDS011;49314;48.278;16.378;2023-07-31T07:38:15;2.27;;;1.50;;
63217;SDS011;49314;48.278;16.378;2023-07-31T07:40:40;3.20;;;1.58;;
63217;SDS011;49314;48.278;16.378;2023-07-31T07:43:06;3.15;;;1.85;;
63217;SDS011;49314;48.278;16.378;2023-07-31T07:45:31;3.90;;;1.43;;
63217;SDS011;49314;48.278;16.378;2023-07-31T07:47:56;3.60;;;2.37;;
63217;SDS011;49314;48.278;16.378;2023-07-31T07:50:22;2.78;;;1.55;;
63217;SDS011;49314;48.278;16.378;2023-07-31T07:52:48;3.73;;;1.97;;
63217;SDS011;49314;48.278;16.378;2023-07-31T07:55:13;4.17;;;2.00;;
63217;SDS011;49314;48.278;16.378;2023-07-31T07:57:38;4.70;;;1.77;;
63217;SDS011;49314;48.278;16.378;2023-07-31T08:00:04;3.25;;;1.60;;
63217;SDS011;49314;48.278;16.378;2023-07-31T08:02:29;3.60;;;1.85;;
63217;SDS011;49314;48.278;16.378;2023-07-31T08:04:55;5.00;;;2.17;;
63217;SDS011;49314;48.278;16.378;2023-07-31T08:07:20;1.83;;;1.57;;
63217;SDS011;49314;48.278;16.378;2023-07-31T08:09:45;2.17;;;1.37;;
63217;SDS011;49314;48.278;16.378;2023-07-31T08:12:10;5.27;;;2.10;;
63217;SDS011;49314;48.278;16.378;2023-07-31T08:14:36;3.83;;;2.23;;
63217;SDS011;49314;48.278;16.378;2023-07-31T08:17:01;3.95;;;1.55;;
63217;SDS011;49314;48.278;16.378;2023-07-31T08:19:27;5.15;;;2.15;;
63217;SDS011;49314;48.278;16.378;2023-07-31T08:21:52;3.40;;;1.60;;
63217;SDS011;49314;48.278;16.378;2023-07-31T08:24:17;2.70;;;1.97;;
63217;SDS011;49314;48.278;16.378;2023-07-31T08:26:42;2.00;;;1.70;;
63217;SDS011;49314;48.278;16.378;2023-07-31T08:29:08;2.83;;;1.90;;
63217;SDS011;49314;48.278;16.378;2023-07-31T08:31:33;2.42;;;1.55;;
63217;SDS011;49314;48.278;16.378;2023-07-31T08:33:59;3.65;;;1.85;;
63217;SDS011;49314;48.278;16.378;2023-07-31T08:36:25;3.47;;;1.90;;
63217;SDS011;49314;48.278;16.378;2023-07-31T08:38:50;5.22;;;1.83;;
63217;SDS011;49314;48.278;16.378;2023-07-31T08:41:16;3.20;;;2.30;;
63217;SDS011;49314;48.278;16.378;2023-07-31T08:43:44;3.60;;;1.58;;
63217;SDS011;49314;48.278;16.378;2023-07-31T08:46:10;4.22;;;2.13;;
63217;SDS011;49314;48.278;16.378;2023-07-31T08:48:35;3.50;;;1.60;;
63217;SDS011;49314;48.278;16.378;2023-07-31T08:51:02;4.50;;;1.75;;
63217;SDS011;49314;48.278;16.378;2023-07-31T08:53:27;4.25;;;2.03;;
63217;SDS011;49314;48.278;16.378;2023-07-31T08:55:52;2.97;;;1.70;;
63217;SDS011;49314;48.278;16.378;2023-07-31T08:58:18;3.58;;;2.03;;
63217;SDS011;49314;48.278;16.378;2023-07-31T09:00:45;3.58;;;1.80;;
63217;SDS011;49314;48.278;16.378;2023-07-31T09:03:14;3.38;;;1.73;;
63217;SDS011;49314;48.278;16.378;2023-07-31T09:05:42;1.95;;;1.50;;
63217;SDS011;49314;48.278;16.378;2023-07-31T09:08:07;3.13;;;1.88;;
63217;SDS011;49314;48.278;16.378;2023-07-31T09:10:34;2.60;;;1.73;;
63217;SDS011;49314;48.278;16.378;2023-07-31T09:13:00;2.33;;;1.63;;
63217;SDS011;49314;48.278;16.378;2023-07-31T09:15:25;2.60;;;1.77;;
63217;SDS011;49314;48.278;16.378;2023-07-31T09:17:58;3.97;;;2.25;;
63217;SDS011;49314;48.278;16.378;2023-07-31T09:20:24;3.08;;;1.45;;
63217;SDS011;49314;48.278;16.378;2023-07-31T09:22:49;4.90;;;1.80;;
63217;SDS011;49314;48.278;16.378;2023-07-31T09:25:17;4.23;;;1.70;;
63217;SDS011;49314;48.278;16.378;2023-07-31T09:27:50;2.42;;;1.70;;
63217;SDS011;49314;48.278;16.378;2023-07-31T09:30:15;4.65;;;1.80;;
63217;SDS011;49314;48.278;16.378;2023-07-31T09:32:41;1.80;;;1.40;;
63217;SDS011;49314;48.278;16.378;2023-07-31T09:37:47;1.77;;;1.67;;
63217;SDS011;49314;48.278;16.378;2023-07-31T09:40:14;3.53;;;1.58;;
63217;SDS011;49314;48.278;16.378;2023-07-31T09:42:50;2.15;;;1.50;;
63217;SDS011;49314;48.278;16.378;2023-07-31T09:45:15;3.10;;;1.30;;
63217;SDS011;49314;48.278;16.378;2023-07-31T09:47:45;3.40;;;1.87;;
63217;SDS011;49314;48.278;16.378;2023-07-31T09:50:11;3.70;;;2.03;;
63217;SDS011;49314;48.278;16.378;2023-07-31T09:52:38;2.70;;;1.50;;
63217;SDS011;49314;48.278;16.378;2023-07-31T09:55:03;1.92;;;1.20;;
63217;SDS011;49314;48.278;16.378;2023-07-31T09:57:28;1.85;;;1.50;;
63217;SDS011;49314;48.278;16.378;2023-07-31T09:59:54;2.15;;;1.73;;
63217;SDS011;49314;48.278;16.378;2023-07-31T10:02:21;1.75;;;1.35;;
63217;SDS011;49314;48.278;16.378;2023-07-31T10:04:47;1.70;;;1.30;;
63217;SDS011;49314;48.278;16.378;2023-07-31T10:07:15;1.60;;;1.38;;
63217;SDS011;49314;48.278;16.378;2023-07-31T10:09:42;5.70;;;1.63;;
63217;SDS011;49314;48.278;16.378;2023-07-31T10:12:07;4.17;;;1.50;;
63217;SDS011;49314;48.278;16.378;2023-07-31T10:14:34;2.42;;;1.85;;
63217;SDS011;49314;48.278;16.378;2023-07-31T10:17:00;5.18;;;2.22;;
63217;SDS011;49314;48.278;16.378;2023-07-31T10:19:26;1.85;;;1.65;;
63217;SDS011;49314;48.278;16.378;2023-07-31T10:21:52;4.05;;;1.67;;
63217;SDS011;49314;48.278;16.378;2023-07-31T10:24:17;3.33;;;2.00;;
63217;SDS011;49314;48.278;16.378;2023-07-31T10:26:44;4.18;;;1.80;;
63217;SDS011;49314;48.278;16.378;2023-07-31T10:29:10;2.15;;;1.55;;
63217;SDS011;49314;48.278;16.378;2023-07-31T10:31:36;3.28;;;1.63;;
63217;SDS011;49314;48.278;16.378;2023-07-31T10:34:02;1.70;;;1.27;;
63217;SDS011;49314;48.278;16.378;2023-07-31T10:36:28;4.35;;;1.88;;
63217;SDS011;49314;48.278;16.378;2023-07-31T10:38:54;2.25;;;1.77;;
63217;SDS011;49314;48.278;16.378;2023-07-31T10:41:23;6.00;;;1.98;;
63217;SDS011;49314;48.278;16.378;2023-07-31T10:43:54;4.90;;;1.77;;
63217;SDS011;49314;48.278;16.378;2023-07-31T10:46:19;5.45;;;1.70;;
63217;SDS011;49314;48.278;16.378;2023-07-31T10:48:44;3.60;;;1.67;;
63217;SDS011;49314;48.278;16.378;2023-07-31T10:51:10;3.33;;;1.87;;
63217;SDS011;49314;48.278;16.378;2023-07-31T10:53:37;4.15;;;1.77;;
63217;SDS011;49314;48.278;16.378;2023-07-31T10:56:03;3.03;;;1.50;;
63217;SDS011;49314;48.278;16.378;2023-07-31T10:58:29;3.42;;;2.15;;
63217;SDS011;49314;48.278;16.378;2023-07-31T11:00:56;4.03;;;1.95;;
63217;SDS011;49314;48.278;16.378;2023-07-31T11:03:25;5.10;;;1.95;;
63217;SDS011;49314;48.278;16.378;2023-07-31T11:08:20;3.30;;;2.13;;
63217;SDS011;49314;48.278;16.378;2023-07-31T11:10:46;3.55;;;1.92;;
63217;SDS011;49314;48.278;16.378;2023-07-31T11:13:11;2.42;;;1.85;;
63217;SDS011;49314;48.278;16.378;2023-07-31T11:15:37;3.50;;;1.70;;
63217;SDS011;49314;48.278;16.378;2023-07-31T11:18:02;3.40;;;1.57;;
63217;SDS011;49314;48.278;16.378;2023-07-31T11:20:34;2.85;;;1.73;;
63217;SDS011;49314;48.278;16.378;2023-07-31T11:23:02;2.45;;;1.90;;
63217;SDS011;49314;48.278;16.378;2023-07-31T11:25:29;3.92;;;2.20;;
63217;SDS011;49314;48.278;16.378;2023-07-31T11:27:54;2.60;;;1.70;;
63217;SDS011;49314;48.278;16.378;2023-07-31T11:30:21;2.03;;;1.70;;
63217;SDS011;49314;48.278;16.378;2023-07-31T11:32:46;2.87;;;1.50;;
63217;SDS011;49314;48.278;16.378;2023-07-31T11:35:14;2.87;;;2.00;;
63217;SDS011;49314;48.278;16.378;2023-07-31T11:37:40;3.80;;;1.90;;
63217;SDS011;49314;48.278;16.378;2023-07-31T11:40:06;2.33;;;1.50;;
63217;SDS011;49314;48.278;16.378;2023-07-31T11:42:31;2.58;;;1.50;;
63217;SDS011;49314;48.278;16.378;2023-07-31T11:44:57;3.43;;;1.60;;
63217;SDS011;49314;48.278;16.378;2023-07-31T11:47:22;3.47;;;1.87;;
63217;SDS011;49314;48.278;16.378;2023-07-31T11:49:47;2.58;;;1.83;;
63217;SDS011;49314;48.278;16.378;2023-07-31T11:52:14;2.67;;;1.40;;
63217;SDS011;49314;48.278;16.378;2023-07-31T11:54:40;2.03;;;1.40;;
63217;SDS011;49314;48.278;16.378;2023-07-31T11:57:05;2.92;;;1.23;;
63217;SDS011;49314;48.278;16.378;2023-07-31T11:59:30;3.08;;;1.33;;
63217;SDS011;49314;48.278;16.378;2023-07-31T12:01:56;2.95;;;1.50;;
63217;SDS011;49314;48.278;16.378;2023-07-31T12:04:21;3.70;;;1.40;;
63217;SDS011;49314;48.278;16.378;2023-07-31T12:06:46;5.17;;;1.33;;
63217;SDS011;49314;48.278;16.378;2023-07-31T12:09:13;4.65;;;1.80;;
63217;SDS011;49314;48.278;16.378;2023-07-31T12:11:42;1.65;;;1.50;;
63217;SDS011;49314;48.278;16.378;2023-07-31T12:14:17;3.78;;;1.50;;
63217;SDS011;49314;48.278;16.378;2023-07-31T12:16:44;2.28;;;1.70;;
63217;SDS011;49314;48.278;16.378;2023-07-31T12:19:09;4.45;;;1.63;;
63217;SDS011;49314;48.278;16.378;2023-07-31T12:21:34;1.40;;;1.30;;
63217;SDS011;49314;48.278;16.378;2023-07-31T12:23:59;4.20;;;2.67;;
63217;SDS011;49314;48.278;16.378;2023-07-31T12:26:25;2.47;;;1.37;;
63217;SDS011;49314;48.278;16.378;2023-07-31T12:28:58;1.90;;;1.48;;
63217;SDS011;49314;48.278;16.378;2023-07-31T12:31:24;1.77;;;1.17;;
63217;SDS011;49314;48.278;16.378;2023-07-31T12:33:52;3.75;;;1.98;;
63217;SDS011;49314;48.278;16.378;2023-07-31T12:36:21;2.67;;;1.73;;
63217;SDS011;49314;48.278;16.378;2023-07-31T12:38:46;3.40;;;1.90;;
63217;SDS011;49314;48.278;16.378;2023-07-31T12:41:12;2.35;;;1.42;;
63217;SDS011;49314;48.278;16.378;2023-07-31T12:43:38;4.05;;;1.80;;
63217;SDS011;49314;48.278;16.378;2023-07-31T12:46:04;1.80;;;1.70;;
63217;SDS011;49314;48.278;16.378;2023-07-31T12:48:29;2.40;;;1.70;;
63217;SDS011;49314;48.278;16.378;2023-07-31T12:50:55;3.72;;;1.50;;
63217;SDS011;49314;48.278;16.378;2023-07-31T12:53:20;2.03;;;1.63;;
63217;SDS011;49314;48.278;16.378;2023-07-31T12:55:45;2.53;;;1.70;;
63217;SDS011;49314;48.278;16.378;2023-07-31T12:58:11;2.05;;;1.77;;
63217;SDS011;49314;48.278;16.378;2023-07-31T13:00:36;1.70;;;1.43;;
63217;SDS011;49314;48.278;16.378;2023-07-31T13:03:02;3.30;;;1.77;;
63217;SDS011;49314;48.278;16.378;2023-07-31T13:05:28;3.22;;;1.75;;
63217;SDS011;49314;48.278;16.378;2023-07-31T13:07:53;2.70;;;1.40;;
63217;SDS011;49314;48.278;16.378;2023-07-31T13:10:19;3.20;;;1.85;;
63217;SDS011;49314;48.278;16.378;2023-07-31T13:12:44;2.78;;;1.38;;
63217;SDS011;49314;48.278;16.378;2023-07-31T13:15:09;2.57;;;1.43;;
63217;SDS011;49314;48.278;16.378;2023-07-31T13:17:35;2.92;;;1.70;;
63217;SDS011;49314;48.278;16.378;2023-07-31T13:20:00;3.15;;;1.98;;
63217;SDS011;49314;48.278;16.378;2023-07-31T13:22:25;5.60;;;1.60;;
63217;SDS011;49314;48.278;16.378;2023-07-31T13:24:51;2.77;;;1.67;;
63217;SDS011;49314;48.278;16.378;2023-07-31T13:27:16;2.33;;;1.80;;
63217;SDS011;49314;48.278;16.378;2023-07-31T13:29:44;2.88;;;1.90;;
63217;SDS011;49314;48.278;16.378;2023-07-31T13:32:09;1.98;;;1.50;;
63217;SDS011;49314;48.278;16.378;2023-07-31T13:34:34;2.37;;;1.77;;
63217;SDS011;49314;48.278;16.378;2023-07-31T13:36:59;3.20;;;2.10;;
63217;SDS011;49314;48.278;16.378;2023-07-31T13:39:25;2.10;;;1.40;;
63217;SDS011;49314;48.278;16.378;2023-07-31T13:41:50;1.97;;;1.50;;
63217;SDS011;49314;48.278;16.378;2023-07-31T13:44:15;3.40;;;2.07;;
63217;SDS011;49314;48.278;16.378;2023-07-31T13:46:40;2.17;;;1.97;;
63217;SDS011;49314;48.278;16.378;2023-07-31T13:49:06;2.40;;;1.60;;
63217;SDS011;49314;48.278;16.378;2023-07-31T13:51:31;2.03;;;1.40;;
63217;SDS011;49314;48.278;16.378;2023-07-31T13:53:56;2.90;;;1.90;;
63217;SDS011;49314;48.278;16.378;2023-07-31T13:56:21;3.90;;;1.83;;
63217;SDS011;49314;48.278;16.378;2023-07-31T13:58:46;1.90;;;1.70;;
63217;SDS011;49314;48.278;16.378;2023-07-31T14:01:12;2.80;;;1.23;;
63217;SDS011;49314;48.278;16.378;2023-07-31T14:03:37;2.30;;;1.50;;
63217;SDS011;49314;48.278;16.378;2023-07-31T14:06:02;3.87;;;2.13;;
63217;SDS011;49314;48.278;16.378;2023-07-31T14:08:27;3.80;;;1.83;;
63217;SDS011;49314;48.278;16.378;2023-07-31T14:10:54;1.98;;;1.42;;
63217;SDS011;49314;48.278;16.378;2023-07-31T14:13:19;2.03;;;1.43;;
63217;SDS011;49314;48.278;16.378;2023-07-31T14:15:44;5.00;;;1.90;;
63217;SDS011;49314;48.278;16.378;2023-07-31T14:18:10;2.53;;;1.97;;
63217;SDS011;49314;48.278;16.378;2023-07-31T14:20:35;3.40;;;1.40;;
63217;SDS011;49314;48.278;16.378;2023-07-31T14:23:00;3.70;;;2.00;;
63217;SDS011;49314;48.278;16.378;2023-07-31T14:25:26;1.75;;;1.50;;
63217;SDS011;49314;48.278;16.378;2023-07-31T14:27:51;2.07;;;1.37;;
63217;SDS011;49314;48.278;16.378;2023-07-31T14:30:16;2.03;;;1.60;;
63217;SDS011;49314;48.278;16.378;2023-07-31T14:32:43;4.90;;;1.95;;
63217;SDS011;49314;48.278;16.378;2023-07-31T14:35:08;2.97;;;1.63;;